createdAt,value
2018-08-09T00:01:34.261Z,75.74
2018-08-09T00:04:05.026Z,74.75
2018-08-09T00:06:35.811Z,74.23
2018-08-09T00:09:09.873Z,74.06
2018-08-09T00:11:40.990Z,73.74
2018-08-09T00:14:12.501Z,73.20
2018-08-09T00:16:42.839Z,73.72
2018-08-09T00:19:13.933Z,73.89
2018-08-09T00:21:44.571Z,73.78
2018-08-09T00:24:14.189Z,74.02
2018-08-09T00:26:44.045Z,74.05
2018-08-09T00:29:13.564Z,73.80
2018-08-09T00:31:44.809Z,74.93
2018-08-09T00:34:14.638Z,75.25
2018-08-09T00:39:47.677Z,75.08
2018-08-09T00:42:18.387Z,75.18
2018-08-09T00:44:48.939Z,75.63
2018-08-09T00:47:18.797Z,75.72
2018-08-09T00:49:49.847Z,75.99
2018-08-09T00:52:19.274Z,75.86
2018-08-09T00:54:50.248Z,76.72
2018-08-09T00:57:20.910Z,76.83
2018-08-09T00:59:50.876Z,77.04
2018-08-09T01:02:20.936Z,77.29
2018-08-09T01:04:51.717Z,77.69
2018-08-09T01:07:22.541Z,77.82
2018-08-09T01:09:52.528Z,77.57
2018-08-09T01:12:23.821Z,77.90
2018-08-09T01:14:54.361Z,77.38
2018-08-09T01:17:24.341Z,77.63
2018-08-09T01:19:54.274Z,77.70
2018-08-09T01:22:24.196Z,77.96
2018-08-09T01:24:53.733Z,77.78
2018-08-09T01:27:24.927Z,77.69
2018-08-09T01:29:54.950Z,77.84
2018-08-09T01:32:24.430Z,78.32
2018-08-09T01:34:57.901Z,78.24
2018-08-09T01:37:27.854Z,78.75
2018-08-09T01:39:58.685Z,79.88
2018-08-09T01:42:45.540Z,80.22
2018-08-09T01:45:16.202Z,79.79
2018-08-09T01:47:46.680Z,79.30
2018-08-09T01:50:16.830Z,80.83
2018-08-09T01:52:47.840Z,81.04
2018-08-09T01:55:17.516Z,80.67
2018-08-09T01:57:47.644Z,80.40
2018-08-09T02:00:18.337Z,79.96
2018-08-09T02:02:48.956Z,80.18
2018-08-09T02:05:19.556Z,80.00
2018-08-09T02:07:51.672Z,80.19
2018-08-09T02:10:21.788Z,79.77
2018-08-09T02:12:53.020Z,80.17
2018-08-09T02:15:22.936Z,80.17
2018-08-09T02:17:54.572Z,79.81
2018-08-09T02:20:24.542Z,79.88
2018-08-09T02:22:54.592Z,80.48
2018-08-09T02:25:24.768Z,80.19
2018-08-09T02:27:54.644Z,80.73
2018-08-09T02:30:24.551Z,81.01
2018-08-09T02:32:54.697Z,81.14
2018-08-09T02:35:25.736Z,81.01
2018-08-09T02:37:55.709Z,81.04
2018-08-09T02:40:25.241Z,82.37
2018-08-09T02:42:54.710Z,82.10
2018-08-09T02:45:24.225Z,83.15
2018-08-09T02:47:54.112Z,82.74
2018-08-09T02:50:24.024Z,82.79
2018-08-09T02:52:53.963Z,82.79
2018-08-09T02:55:23.435Z,83.32
2018-08-09T02:57:53.532Z,83.00
2018-08-09T03:00:23.425Z,85.12
2018-08-09T03:02:53.388Z,84.74
2018-08-09T03:05:22.907Z,85.54
2018-08-09T03:07:52.516Z,85.42
2018-08-09T03:10:22.395Z,84.95
2018-08-09T03:12:52.444Z,84.93
2018-08-09T03:15:22.370Z,85.67
2018-08-09T03:17:52.343Z,85.62
2018-08-09T03:20:22.403Z,85.67
2018-08-09T03:22:52.265Z,85.26
2018-08-09T03:25:22.363Z,85.94
2018-08-09T03:27:52.279Z,85.89
2018-08-09T03:30:22.314Z,85.66
2018-08-09T03:32:51.785Z,85.25
2018-08-09T03:35:44.707Z,85.22
2018-08-09T03:38:14.198Z,85.79
2018-08-09T03:40:43.788Z,85.16
2018-08-09T03:43:13.694Z,84.95
2018-08-09T03:45:43.605Z,85.13
2018-08-09T03:48:13.263Z,84.84
2018-08-09T03:50:43.331Z,84.77
2018-08-09T03:53:13.269Z,84.42
2018-08-09T03:55:43.215Z,84.63
2018-08-09T03:58:12.937Z,84.46
2018-08-09T04:00:42.687Z,84.19
2018-08-09T04:03:12.454Z,83.53
2018-08-09T04:05:41.938Z,83.87
2018-08-09T04:08:12.247Z,83.13
2018-08-09T04:10:41.995Z,83.18
2018-08-09T04:13:11.690Z,82.88
2018-08-09T04:15:41.239Z,81.95
2018-08-09T04:18:12.369Z,81.34
2018-08-09T04:20:41.891Z,80.95
2018-08-09T04:23:12.083Z,80.48
2018-08-09T04:25:41.817Z,80.16
2018-08-09T04:28:11.667Z,79.73
2018-08-09T04:30:41.485Z,79.12
2018-08-09T04:33:11.490Z,79.18
2018-08-09T04:35:41.255Z,79.53
2018-08-09T04:38:11.687Z,79.45
2018-08-09T04:40:41.525Z,78.93
2018-08-09T04:43:11.321Z,78.13
2018-08-09T04:45:41.137Z,78.33
2018-08-09T04:48:10.638Z,77.51
2018-08-09T04:50:40.023Z,77.82
2018-08-09T04:53:10.435Z,77.00
2018-08-09T04:55:39.815Z,76.97
2018-08-09T04:58:09.538Z,77.72
2018-08-09T05:00:39.248Z,76.86
2018-08-09T05:03:09.064Z,76.11
2018-08-09T05:05:39.299Z,76.17
2018-08-09T05:08:08.864Z,75.58
2018-08-09T05:10:38.228Z,75.84
2018-08-09T05:13:08.051Z,75.26
2018-08-09T05:15:38.038Z,75.20
2018-08-09T05:18:07.572Z,74.90
2018-08-09T05:20:37.307Z,74.62
2018-08-09T05:23:07.143Z,74.67
2018-08-09T05:25:36.943Z,73.79
2018-08-09T05:28:06.817Z,73.48
2018-08-09T05:30:37.859Z,74.03
2018-08-09T05:33:07.292Z,73.78
2018-08-09T05:35:36.815Z,73.11
2018-08-09T05:38:06.761Z,72.81
2018-08-09T05:40:36.238Z,72.98
2018-08-09T05:43:05.706Z,72.61
2018-08-09T05:45:35.131Z,71.82
2018-08-09T05:48:04.908Z,71.39
2018-08-09T05:50:34.725Z,70.86
2018-08-09T05:53:04.544Z,70.76
2018-08-09T05:55:33.942Z,70.42
2018-08-09T05:58:03.370Z,69.97
2018-08-09T06:00:33.124Z,69.24
2018-08-09T06:03:03.034Z,68.82
2018-08-09T06:05:32.768Z,68.91
2018-08-09T06:08:02.614Z,67.68
2018-08-09T06:10:32.438Z,68.18
2018-08-09T06:13:01.874Z,67.64
2018-08-09T06:15:31.350Z,67.25
2018-08-09T06:18:01.230Z,67.32
2018-08-09T06:20:30.717Z,67.47
2018-08-09T06:23:00.510Z,66.55
2018-08-09T06:25:30.405Z,65.80
2018-08-09T06:28:00.298Z,66.02
2018-08-09T06:30:29.827Z,66.11
2018-08-09T06:32:59.586Z,66.06
2018-08-09T06:35:29.094Z,65.05
2018-08-09T06:37:58.897Z,65.32
2018-08-09T06:40:28.827Z,65.04
2018-08-09T06:42:58.284Z,65.29
2018-08-09T06:45:28.133Z,65.18
2018-08-09T06:47:57.985Z,64.98
2018-08-09T06:50:27.769Z,63.28
2018-08-09T06:52:57.175Z,63.88
2018-08-09T06:55:27.038Z,62.91
2018-08-09T06:57:56.885Z,62.37
2018-08-09T07:00:26.664Z,61.78
2018-08-09T07:02:56.528Z,63.03
2018-08-09T07:05:26.319Z,62.75
2018-08-09T07:07:56.047Z,62.89
2018-08-09T07:10:25.850Z,61.93
2018-08-09T07:12:55.695Z,60.64
2018-08-09T07:15:25.453Z,59.65
2018-08-09T07:17:55.341Z,59.22
2018-08-09T07:20:25.214Z,59.73
2018-08-09T07:22:55.074Z,59.00
2018-08-09T07:25:24.957Z,59.40
2018-08-09T07:27:54.785Z,59.32
2018-08-09T07:30:24.497Z,58.99
2018-08-09T07:32:54.333Z,59.45
2018-08-09T07:35:24.101Z,58.64
2018-08-09T07:37:53.897Z,59.01
2018-08-09T07:40:23.632Z,57.54
2018-08-09T07:42:53.416Z,56.64
2018-08-09T07:45:22.801Z,56.57
2018-08-09T07:47:52.280Z,56.36
2018-08-09T07:50:21.988Z,55.42
2018-08-09T07:52:51.833Z,55.78
2018-08-09T07:55:21.612Z,54.64
2018-08-09T07:57:51.023Z,54.95
2018-08-09T08:00:20.825Z,54.53
2018-08-09T08:02:51.047Z,54.29
2018-08-09T08:05:21.133Z,53.91
2018-08-09T08:07:50.861Z,53.79
2018-08-09T08:10:20.332Z,53.65
2018-08-09T08:12:50.059Z,52.91
2018-08-09T08:15:19.950Z,53.58
2018-08-09T08:17:49.341Z,53.42
2018-08-09T08:20:18.723Z,53.10
2018-08-09T08:22:48.108Z,53.27
2018-08-09T08:25:17.628Z,52.07
2018-08-09T08:27:47.379Z,51.60
2018-08-09T08:30:21.521Z,51.83
2018-08-09T08:32:51.097Z,51.43
2018-08-09T08:35:20.896Z,51.45
2018-08-09T08:37:50.337Z,50.78
2018-08-09T08:40:20.136Z,50.92
2018-08-09T08:42:49.915Z,50.64
2018-08-09T08:45:19.257Z,49.50
2018-08-09T08:47:48.985Z,49.78
2018-08-09T08:50:18.745Z,49.09
2018-08-09T08:52:48.670Z,48.39
2018-08-09T08:55:18.467Z,48.85
2018-08-09T08:57:47.789Z,50.14
2018-08-09T09:00:17.251Z,49.49
2018-08-09T09:02:47.011Z,48.65
2018-08-09T09:05:16.827Z,47.73
2018-08-09T09:07:46.564Z,47.67
2018-08-09T09:10:16.463Z,47.06
2018-08-09T09:12:46.284Z,46.36
2018-08-09T09:15:16.233Z,45.48
2018-08-09T09:17:45.750Z,45.45
2018-08-09T09:20:17.317Z,45.56
2018-08-09T09:22:47.204Z,45.80
2018-08-09T09:25:16.945Z,45.75
2018-08-09T09:27:46.683Z,45.31
2018-08-09T09:30:17.975Z,44.76
2018-08-09T09:32:47.901Z,44.90
2018-08-09T09:35:17.357Z,45.64
2018-08-09T09:37:47.145Z,45.75
2018-08-09T09:40:17.100Z,43.96
2018-08-09T09:42:46.520Z,44.42
2018-08-09T09:45:16.000Z,43.63
2018-08-09T09:47:45.755Z,43.53
2018-08-09T09:50:15.188Z,42.96
2018-08-09T09:52:44.945Z,44.26
2018-08-09T09:55:14.840Z,44.28
2018-08-09T09:57:44.592Z,43.56
2018-08-09T10:00:19.508Z,43.16
2018-08-09T10:02:49.216Z,42.02
2018-08-09T10:05:19.029Z,41.28
2018-08-09T10:07:48.487Z,41.12
2018-08-09T10:10:18.896Z,41.37
2018-08-09T10:12:48.690Z,41.70
2018-08-09T10:15:18.508Z,40.97
2018-08-09T10:17:48.632Z,41.37
2018-08-09T10:20:18.044Z,38.57
2018-08-09T10:22:47.761Z,38.81
2018-08-09T10:25:17.588Z,39.54
2018-08-09T10:27:47.352Z,39.12
2018-08-09T10:30:17.089Z,39.94
2018-08-09T10:32:46.973Z,38.39
2018-08-09T10:35:17.691Z,38.96
2018-08-09T10:37:47.595Z,39.92
2018-08-09T10:40:17.738Z,38.58
2018-08-09T10:42:47.497Z,37.96
2018-08-09T10:45:16.964Z,36.95
2018-08-09T10:47:47.024Z,37.11
2018-08-09T10:50:17.114Z,37.41
2018-08-09T10:52:47.252Z,37.38
2018-08-09T10:55:19.228Z,38.38
2018-08-09T10:57:49.076Z,38.57
2018-08-09T11:00:19.541Z,36.12
2018-08-09T11:02:49.397Z,35.45
2018-08-09T11:05:19.205Z,35.60
2018-08-09T11:07:50.720Z,35.71
2018-08-09T11:10:21.174Z,35.21
2018-08-09T11:12:50.648Z,34.52
2018-08-09T11:15:20.828Z,35.62
2018-08-09T11:17:50.848Z,35.58
2018-08-09T11:20:20.235Z,34.43
2018-08-09T11:22:50.161Z,38.63
2018-08-09T11:25:20.115Z,38.99
2018-08-09T11:27:49.916Z,34.40
2018-08-09T11:30:19.936Z,31.86
2018-08-09T11:32:49.729Z,35.13
2018-08-09T11:35:19.196Z,33.98
2018-08-09T11:37:48.972Z,35.14
2018-08-09T11:40:19.010Z,34.34
2018-08-09T11:42:48.771Z,33.04
2018-08-09T11:45:18.519Z,30.41
2018-08-09T11:47:48.328Z,30.22
2018-08-09T11:50:19.174Z,33.10
2018-08-09T11:52:48.657Z,33.26
2018-08-09T11:55:17.967Z,31.90
2018-08-09T11:57:47.459Z,30.46
2018-08-09T12:00:16.780Z,32.39
2018-08-09T12:02:46.367Z,33.38
2018-08-09T12:05:16.086Z,31.23
2018-08-09T12:07:45.920Z,32.98
2018-08-09T12:10:15.716Z,30.21
2018-08-09T12:12:45.446Z,29.10
2018-08-09T12:15:15.275Z,32.35
2018-08-09T12:17:45.056Z,30.68
2018-08-09T12:20:14.972Z,29.68
2018-08-09T12:22:44.564Z,30.18
2018-08-09T12:25:14.028Z,29.68
2018-08-09T12:27:43.889Z,30.50
2018-08-09T12:30:15.107Z,28.83
2018-08-09T12:32:45.285Z,30.79
2018-08-09T12:35:14.748Z,29.93
2018-08-09T12:37:50.443Z,29.68
2018-08-09T12:40:20.316Z,28.81
2018-08-09T12:42:50.588Z,29.02
2018-08-09T12:45:20.582Z,28.18
2018-08-09T12:47:50.489Z,30.07
2018-08-09T12:50:20.529Z,29.04
2018-08-09T12:52:50.423Z,29.99
2018-08-09T12:55:19.887Z,30.70
2018-08-09T12:57:49.743Z,27.65
2018-08-09T13:00:19.684Z,28.06
2018-08-09T13:02:49.563Z,27.92
2018-08-09T13:05:19.426Z,27.77
2018-08-09T13:07:49.257Z,28.69
2018-08-09T13:10:19.109Z,29.40
2018-08-09T13:12:48.631Z,31.69
2018-08-09T13:15:18.139Z,29.71
2018-08-09T13:17:47.597Z,33.25
2018-08-09T13:20:19.481Z,33.00
2018-08-09T13:22:50.683Z,29.13
2018-08-09T13:25:20.608Z,29.83
2018-08-09T13:27:50.476Z,29.32
2018-08-09T13:30:20.871Z,30.35
2018-08-09T13:32:55.127Z,33.69
2018-08-09T13:35:25.069Z,32.73
2018-08-09T13:37:55.010Z,31.30
2018-08-09T13:40:31.292Z,30.97
2018-08-09T13:43:01.161Z,31.43
2018-08-09T13:45:30.593Z,31.68
2018-08-09T13:48:00.427Z,29.36
2018-08-09T13:50:30.181Z,31.29
2018-08-09T13:53:00.057Z,28.44
2018-08-09T13:55:29.987Z,26.19
2018-08-09T13:57:59.937Z,25.21
2018-08-09T14:00:29.766Z,26.68
2018-08-09T14:02:59.279Z,27.98
2018-08-09T14:05:29.082Z,28.29
2018-08-09T14:07:58.529Z,28.30
2018-08-09T14:10:28.340Z,32.62
2018-08-09T14:12:57.914Z,31.35
2018-08-09T14:15:27.692Z,30.77
2018-08-09T14:17:58.040Z,31.17
2018-08-09T14:20:27.580Z,29.35
2018-08-09T14:22:57.252Z,27.81
2018-08-09T14:25:27.186Z,29.13
2018-08-09T14:27:56.987Z,30.67
2018-08-09T14:30:26.864Z,29.16
2018-08-09T14:32:56.878Z,29.16
2018-08-09T14:35:26.933Z,28.32
2018-08-09T14:37:56.963Z,27.70
2018-08-09T14:40:26.704Z,26.77
2018-08-09T14:42:56.586Z,28.46
2018-08-09T14:45:26.011Z,28.56
2018-08-09T14:47:55.751Z,29.97
2018-08-09T14:50:26.005Z,28.20
2018-08-09T14:52:57.662Z,27.10
2018-08-09T14:55:29.298Z,27.26
2018-08-09T14:57:58.692Z,27.41
2018-08-09T15:00:28.265Z,27.78
2018-08-09T15:02:58.187Z,27.05
2018-08-09T15:05:28.362Z,28.11
2018-08-09T15:07:57.899Z,27.99
2018-08-09T15:10:29.487Z,26.94
2018-08-09T15:12:59.294Z,27.83
2018-08-09T15:15:31.350Z,28.26
2018-08-09T15:18:01.022Z,29.16
2018-08-09T15:20:30.840Z,30.12
2018-08-09T15:23:00.948Z,29.21
2018-08-09T15:25:30.417Z,28.68
2018-08-09T15:28:00.201Z,29.42
2018-08-09T15:30:29.878Z,29.69
2018-08-09T15:32:59.566Z,29.20
2018-08-09T15:35:30.542Z,29.65
2018-08-09T15:38:00.864Z,29.85
2018-08-09T15:40:31.528Z,29.67
2018-08-09T15:43:02.908Z,28.33
2018-08-09T15:45:32.917Z,30.11
2018-08-09T15:48:03.659Z,30.71
2018-08-09T15:50:33.655Z,31.45
2018-08-09T15:53:03.413Z,31.27
2018-08-09T15:55:34.201Z,33.60
2018-08-09T15:58:03.841Z,33.09
2018-08-09T16:00:34.704Z,33.26
2018-08-09T16:03:04.890Z,34.02
2018-08-09T16:05:35.972Z,34.01
2018-08-09T16:08:07.126Z,33.78
2018-08-09T16:10:39.342Z,33.79
2018-08-09T16:13:13.675Z,33.28
2018-08-09T16:15:43.525Z,33.95
2018-08-09T16:18:13.666Z,33.32
2018-08-09T16:20:46.077Z,33.57
2018-08-09T16:23:17.270Z,33.42
2018-08-09T16:25:49.074Z,31.34
2018-08-09T16:28:20.526Z,32.71
2018-08-09T16:30:54.952Z,30.49
2018-08-09T16:33:25.974Z,32.83
2018-08-09T16:36:03.268Z,30.41
2018-08-09T16:38:34.820Z,31.03
2018-08-09T16:41:04.896Z,31.12
2018-08-09T16:43:36.399Z,32.01
2018-08-09T16:46:09.047Z,31.88
2018-08-09T16:48:39.453Z,32.86
2018-08-09T16:51:09.893Z,33.44
2018-08-09T16:53:41.151Z,35.61
2018-08-09T16:56:19.950Z,37.39
2018-08-09T16:58:49.991Z,36.83
2018-08-09T17:01:19.406Z,36.07
2018-08-09T17:03:49.185Z,37.53
2018-08-09T17:06:19.578Z,36.27
2018-08-09T17:08:49.773Z,37.55
2018-08-09T17:11:19.229Z,36.25
2018-08-09T17:13:48.737Z,36.89
2018-08-09T17:16:18.571Z,36.47
2018-08-09T17:18:48.158Z,37.72
2018-08-09T17:21:18.249Z,37.28
2018-08-09T17:23:48.553Z,37.22
2018-08-09T17:26:18.145Z,37.34
2018-08-09T17:28:48.053Z,36.58
2018-08-09T17:31:17.765Z,36.85
2018-08-09T17:33:48.195Z,37.46
2018-08-09T17:36:18.580Z,36.90
2018-08-09T17:38:48.017Z,37.99
2018-08-09T17:41:17.506Z,37.74
2018-08-09T17:43:48.465Z,36.35
2018-08-09T17:46:18.400Z,38.27
2018-08-09T17:48:47.882Z,38.36
2018-08-09T17:51:18.532Z,38.40
2018-08-09T17:53:49.262Z,39.21
2018-08-09T17:56:19.826Z,39.85
2018-08-09T17:58:49.472Z,40.69
2018-08-09T18:01:19.269Z,40.16
2018-08-09T18:03:49.990Z,39.95
2018-08-09T18:06:20.425Z,40.55
2018-08-09T18:08:50.155Z,40.74
2018-08-09T18:11:21.340Z,40.57
2018-08-09T18:13:51.938Z,40.90
2018-08-09T18:16:22.703Z,41.45
2018-08-09T18:18:52.707Z,42.41
2018-08-09T18:21:24.101Z,42.37
2018-08-09T18:23:55.586Z,42.49
2018-08-09T18:26:26.049Z,43.16
2018-08-09T18:28:55.903Z,43.14
2018-08-09T18:31:26.161Z,43.28
2018-08-09T18:33:55.627Z,42.21
2018-08-09T18:36:25.505Z,43.42
2018-08-09T18:38:55.044Z,43.04
2018-08-09T18:41:25.951Z,43.36
2018-08-09T18:43:55.693Z,43.63
2018-08-09T18:46:25.648Z,43.24
2018-08-09T18:48:56.277Z,44.04
2018-08-09T18:51:26.134Z,44.04
2018-08-09T18:53:55.702Z,44.78
2018-08-09T18:56:25.673Z,44.56
2018-08-09T18:58:55.219Z,44.90
2018-08-09T19:01:24.888Z,44.50
2018-08-09T19:03:58.968Z,45.24
2018-08-09T19:06:29.151Z,45.24
2018-08-09T19:08:58.756Z,44.68
2018-08-09T19:11:28.862Z,44.00
2018-08-09T19:13:58.809Z,46.07
2018-08-09T19:16:28.745Z,46.09
2018-08-09T19:19:02.280Z,45.95
2018-08-09T19:21:32.162Z,46.57
2018-08-09T19:24:02.178Z,46.27
2018-08-09T19:26:32.156Z,45.43
2018-08-09T19:29:02.352Z,46.30
2018-08-09T19:31:33.204Z,46.42
2018-08-09T19:34:02.768Z,47.01
2018-08-09T19:36:32.798Z,47.07
2018-08-09T19:39:03.265Z,47.21
2018-08-09T19:41:33.767Z,47.57
2018-08-09T19:44:03.312Z,47.75
2018-08-09T19:46:33.135Z,47.59
2018-08-09T19:49:02.557Z,48.05
2018-08-09T19:51:32.145Z,48.87
2018-08-09T19:54:02.021Z,47.64
2018-08-09T19:56:31.956Z,47.88
2018-08-09T19:59:02.552Z,48.39
2018-08-09T20:01:32.288Z,48.97
2018-08-09T20:04:02.111Z,48.79
2018-08-09T20:06:33.343Z,49.20
2018-08-09T20:09:03.251Z,50.00
2018-08-09T20:11:33.447Z,49.66
2018-08-09T20:14:03.911Z,49.65
2018-08-09T20:16:33.909Z,49.66
2018-08-09T20:19:03.853Z,50.60
2018-08-09T20:21:34.320Z,50.44
2018-08-09T20:24:04.202Z,50.60
2018-08-09T20:26:34.833Z,51.91
2018-08-09T20:29:05.263Z,51.32
2018-08-09T20:31:35.239Z,51.09
2018-08-09T20:34:05.176Z,51.13
2018-08-09T20:36:35.130Z,51.17
2018-08-09T20:39:06.947Z,51.65
2018-08-09T20:41:36.835Z,52.00
2018-08-09T20:44:07.495Z,51.64
2018-08-09T20:46:37.489Z,52.08
2018-08-09T20:49:07.448Z,52.18
2018-08-09T20:51:37.310Z,50.20
2018-08-09T20:54:06.865Z,49.32
2018-08-09T20:56:36.648Z,48.96
2018-08-09T20:59:06.641Z,48.71
2018-08-09T21:01:37.243Z,48.68
2018-08-09T21:04:09.462Z,48.47
2018-08-09T21:06:39.338Z,49.47
2018-08-09T21:09:11.941Z,49.21
2018-08-09T21:11:42.407Z,49.65
2018-08-09T21:14:12.308Z,48.45
2018-08-09T21:16:42.132Z,49.01
2018-08-09T21:19:12.137Z,49.63
2018-08-09T21:21:41.516Z,47.59
2018-08-09T21:24:10.975Z,47.40
2018-08-09T21:26:40.803Z,47.67
2018-08-09T21:29:10.575Z,48.60
2018-08-09T21:31:40.427Z,48.03
2018-08-09T21:34:09.800Z,48.29
2018-08-09T21:36:39.785Z,48.26
2018-08-09T21:39:11.573Z,48.37
2018-08-09T21:41:41.061Z,48.83
2018-08-09T21:44:10.452Z,48.85
2018-08-09T21:46:39.913Z,49.44
2018-08-09T21:49:09.768Z,50.03
2018-08-09T21:51:39.519Z,50.38
2018-08-09T21:54:09.302Z,50.75
2018-08-09T21:56:39.105Z,51.54
2018-08-09T21:59:08.913Z,51.50
2018-08-09T22:01:39.755Z,51.71
2018-08-09T22:04:09.151Z,52.54
2018-08-09T22:06:44.079Z,52.59
2018-08-09T22:09:18.607Z,52.55
2018-08-09T22:11:53.487Z,53.02
2018-08-09T22:15:29.960Z,53.59
2018-08-09T22:18:04.963Z,54.17
2018-08-09T22:20:39.938Z,53.91
2018-08-09T22:23:09.350Z,55.11
2018-08-09T22:25:39.150Z,54.91
2018-08-09T22:28:09.601Z,55.44
2018-08-09T22:30:39.446Z,55.92
2018-08-09T22:33:10.179Z,55.91
2018-08-09T22:35:39.609Z,56.46
2018-08-09T22:38:09.367Z,57.32
2018-08-09T22:40:39.110Z,57.37
2018-08-09T22:43:08.898Z,57.83
2018-08-09T22:45:38.638Z,58.05
2018-08-09T22:48:08.450Z,58.50
2018-08-09T22:50:37.826Z,58.03
2018-08-09T22:53:07.898Z,59.33
2018-08-09T22:55:37.666Z,58.51
2018-08-09T22:58:07.542Z,58.83
2018-08-09T23:00:37.450Z,59.14
2018-08-09T23:03:09.954Z,58.79
2018-08-09T23:05:40.069Z,59.29
2018-08-09T23:08:11.734Z,57.73
2018-08-09T23:10:42.055Z,58.28
2018-08-09T23:13:12.803Z,57.37
2018-08-09T23:15:43.796Z,55.24
2018-08-09T23:18:13.670Z,54.80
2018-08-09T23:20:43.594Z,54.23
2018-08-09T23:23:13.535Z,54.10
2018-08-09T23:25:43.402Z,53.75
2018-08-09T23:28:12.843Z,52.99
2018-08-09T23:30:42.281Z,52.15
2018-08-09T23:33:12.074Z,50.62
2018-08-09T23:35:41.506Z,51.33
2018-08-09T23:38:11.295Z,50.96
2018-08-09T23:40:41.071Z,51.94
2018-08-09T23:43:10.888Z,50.47
2018-08-09T23:45:40.750Z,51.09
2018-08-09T23:48:10.218Z,50.72
2018-08-09T23:50:40.074Z,50.17
2018-08-09T23:53:10.356Z,50.50
2018-08-09T23:55:39.829Z,50.43
2018-08-09T23:58:09.704Z,50.22
